createdAt,value
2016-12-09T00:00:08.084Z,1025.79
2016-12-09T00:00:48.960Z,1025.79
2016-12-09T00:01:29.817Z,1025.76
2016-12-09T00:02:10.662Z,1025.77
2016-12-09T00:02:51.507Z,1025.74
2016-12-09T00:03:32.405Z,1025.7
2016-12-09T00:04:13.258Z,1025.73
2016-12-09T00:04:54.108Z,1025.74
2016-12-09T00:05:34.987Z,1025.76
2016-12-09T00:06:15.861Z,1025.69
2016-12-09T00:06:56.706Z,1025.72
2016-12-09T00:07:37.551Z,1025.72
2016-12-09T00:08:18.416Z,1025.71
2016-12-09T00:08:59.278Z,1025.73
2016-12-09T00:09:40.125Z,1025.71
2016-12-09T00:10:20.983Z,1025.74
2016-12-09T00:11:01.824Z,1025.72
2016-12-09T00:11:42.662Z,1025.7
2016-12-09T00:12:23.507Z,1025.7
2016-12-09T00:13:04.370Z,1025.72
2016-12-09T00:13:45.231Z,1025.7
2016-12-09T00:14:26.085Z,1025.72
2016-12-09T00:15:06.974Z,1025.75
2016-12-09T00:15:47.851Z,1025.78
2016-12-09T00:16:28.707Z,1025.76
2016-12-09T00:17:09.540Z,1025.75
2016-12-09T00:17:50.423Z,1025.73
2016-12-09T00:18:31.289Z,1025.75
2016-12-09T00:19:12.153Z,1025.74
2016-12-09T00:19:53.024Z,1025.75
2016-12-09T00:20:33.885Z,1025.72
2016-12-09T00:21:14.733Z,1025.74
2016-12-09T00:21:55.628Z,1025.68
2016-12-09T00:22:36.485Z,1025.7
2016-12-09T00:23:17.339Z,1025.7
2016-12-09T00:23:58.180Z,1025.69
2016-12-09T00:24:39.045Z,1025.68
2016-12-09T00:25:19.902Z,1025.67
2016-12-09T00:26:00.823Z,1025.66
2016-12-09T00:26:41.689Z,1025.64
2016-12-09T00:27:22.555Z,1025.61
2016-12-09T00:28:03.426Z,1025.63
2016-12-09T00:28:44.332Z,1025.64
2016-12-09T00:29:25.702Z,1025.6
2016-12-09T00:30:06.051Z,1025.61
2016-12-09T00:30:46.919Z,1025.57
2016-12-09T00:31:27.778Z,1025.57
2016-12-09T00:32:08.666Z,1025.61
2016-12-09T00:32:49.525Z,1025.56
2016-12-09T00:33:30.368Z,1025.6
2016-12-09T00:34:11.224Z,1025.54
2016-12-09T00:34:52.102Z,1025.55
2016-12-09T00:35:32.962Z,1025.57
2016-12-09T00:36:13.829Z,1025.56
2016-12-09T00:36:54.684Z,1025.54
2016-12-09T00:37:35.533Z,1025.51
2016-12-09T00:38:16.418Z,1025.53
2016-12-09T00:38:57.266Z,1025.48
2016-12-09T00:39:38.130Z,1025.49
2016-12-09T00:40:18.981Z,1025.48
2016-12-09T00:40:59.837Z,1025.45
2016-12-09T00:41:40.686Z,1025.45
2016-12-09T00:42:21.559Z,1025.44
2016-12-09T00:43:02.428Z,1025.48
2016-12-09T00:43:43.344Z,1025.44
2016-12-09T00:44:24.194Z,1025.44
2016-12-09T00:45:05.058Z,1025.47
2016-12-09T00:45:45.916Z,1025.44
2016-12-09T00:46:26.772Z,1025.46
2016-12-09T00:47:07.638Z,1025.46
2016-12-09T00:47:48.511Z,1025.48
2016-12-09T00:48:29.406Z,1025.49
2016-12-09T00:49:10.259Z,1025.48
2016-12-09T00:49:51.109Z,1025.49
2016-12-09T00:50:31.971Z,1025.53
2016-12-09T00:51:12.851Z,1025.49
2016-12-09T00:51:53.729Z,1025.53
2016-12-09T00:52:34.594Z,1025.5
2016-12-09T00:53:15.481Z,1025.52
2016-12-09T00:53:56.349Z,1025.49
2016-12-09T00:54:37.234Z,1025.47
2016-12-09T00:55:18.125Z,1025.5
2016-12-09T00:55:58.995Z,1025.5
2016-12-09T00:56:39.841Z,1025.5
2016-12-09T00:57:20.679Z,1025.47
2016-12-09T00:58:01.531Z,1025.48
2016-12-09T00:58:42.401Z,1025.46
2016-12-09T00:59:23.256Z,1025.43
2016-12-09T01:00:04.130Z,1025.46
2016-12-09T01:00:44.988Z,1025.44
2016-12-09T01:01:25.882Z,1025.42
2016-12-09T01:02:06.749Z,1025.41
2016-12-09T01:02:47.643Z,1025.38
2016-12-09T01:03:28.499Z,1025.39
2016-12-09T01:04:09.417Z,1025.35
2016-12-09T01:04:50.304Z,1025.38
2016-12-09T01:05:31.173Z,1025.36
2016-12-09T01:06:12.019Z,1025.34
2016-12-09T01:06:52.862Z,1025.35
2016-12-09T01:07:33.679Z,1025.35
2016-12-09T01:08:14.502Z,1025.36
2016-12-09T01:08:55.329Z,1025.35
2016-12-09T01:09:36.134Z,1025.38
2016-12-09T01:10:16.964Z,1025.35
2016-12-09T01:10:57.783Z,1025.34
2016-12-09T01:11:38.631Z,1025.36
2016-12-09T01:12:19.445Z,1025.34
2016-12-09T01:13:00.267Z,1025.33
2016-12-09T01:13:41.080Z,1025.35
2016-12-09T01:14:21.907Z,1025.35
2016-12-09T01:15:02.746Z,1025.36
2016-12-09T01:15:43.576Z,1025.34
2016-12-09T01:16:24.396Z,1025.37
2016-12-09T01:17:05.256Z,1025.35
2016-12-09T01:17:46.154Z,1025.37
2016-12-09T01:18:26.989Z,1025.34
2016-12-09T01:19:07.825Z,1025.32
2016-12-09T01:19:48.656Z,1025.32
2016-12-09T01:20:29.492Z,1025.28
2016-12-09T01:21:10.313Z,1025.33
2016-12-09T01:21:51.148Z,1025.32
2016-12-09T01:22:31.957Z,1025.33
2016-12-09T01:23:12.772Z,1025.32
2016-12-09T01:23:53.582Z,1025.31
2016-12-09T01:24:34.388Z,1025.33
2016-12-09T01:25:15.293Z,1025.3
2016-12-09T01:25:56.728Z,1025.31
2016-12-09T01:26:36.927Z,1025.32
2016-12-09T01:27:17.773Z,1025.34
2016-12-09T01:27:58.600Z,1025.32
2016-12-09T01:28:39.439Z,1025.36
2016-12-09T01:29:20.285Z,1025.31
2016-12-09T01:30:01.116Z,1025.35
2016-12-09T01:30:42.571Z,1025.35
2016-12-09T01:31:23.409Z,1025.36
2016-12-09T01:32:04.196Z,1025.36
2016-12-09T01:32:45.014Z,1025.32
2016-12-09T01:33:25.836Z,1025.3
2016-12-09T01:34:06.649Z,1025.32
2016-12-09T01:34:47.527Z,1025.3
2016-12-09T01:35:28.354Z,1025.32
2016-12-09T01:36:09.179Z,1025.33
2016-12-09T01:36:49.985Z,1025.33
2016-12-09T01:37:30.782Z,1025.31
2016-12-09T01:38:11.627Z,1025.33
2016-12-09T01:38:52.449Z,1025.34
2016-12-09T01:39:33.275Z,1025.33
2016-12-09T01:40:14.111Z,1025.31
2016-12-09T01:40:54.980Z,1025.35
2016-12-09T01:41:35.820Z,1025.33
2016-12-09T01:42:16.623Z,1025.34
2016-12-09T01:42:57.436Z,1025.34
2016-12-09T01:43:38.285Z,1025.34
2016-12-09T01:44:19.074Z,1025.36
2016-12-09T01:44:59.918Z,1025.34
2016-12-09T01:45:40.740Z,1025.33
2016-12-09T01:46:21.592Z,1025.32
2016-12-09T01:47:02.429Z,1025.36
2016-12-09T01:47:43.240Z,1025.33
2016-12-09T01:48:24.063Z,1025.32
2016-12-09T01:49:04.916Z,1025.35
2016-12-09T01:49:45.764Z,1025.31
2016-12-09T01:50:26.629Z,1025.31
2016-12-09T01:51:07.468Z,1025.29
2016-12-09T01:51:48.295Z,1025.26
2016-12-09T01:52:29.109Z,1025.26
2016-12-09T01:53:09.932Z,1025.24
2016-12-09T01:53:50.744Z,1025.24
2016-12-09T01:54:31.554Z,1025.27
2016-12-09T01:55:12.362Z,1025.26
2016-12-09T01:55:53.273Z,1025.24
2016-12-09T01:56:34.122Z,1025.27
2016-12-09T01:57:14.944Z,1025.25
2016-12-09T01:57:55.745Z,1025.25
2016-12-09T01:58:36.643Z,1025.23
2016-12-09T01:59:17.459Z,1025.24
2016-12-09T01:59:58.269Z,1025.21
2016-12-09T02:00:39.097Z,1025.21
2016-12-09T02:01:19.914Z,1025.22
2016-12-09T02:02:00.790Z,1025.18
2016-12-09T02:02:41.597Z,1025.21
2016-12-09T02:03:22.434Z,1025.2
2016-12-09T02:04:03.280Z,1025.19
2016-12-09T02:04:44.148Z,1025.17
2016-12-09T02:05:24.994Z,1025.19
2016-12-09T02:06:05.822Z,1025.17
2016-12-09T02:06:46.658Z,1025.19
2016-12-09T02:07:27.467Z,1025.19
2016-12-09T02:08:08.332Z,1025.17
2016-12-09T02:08:49.156Z,1025.11
2016-12-09T02:09:30.011Z,1025.18
2016-12-09T02:10:10.835Z,1025.18
2016-12-09T02:10:51.667Z,1025.19
2016-12-09T02:11:32.492Z,1025.18
2016-12-09T02:12:13.293Z,1025.19
2016-12-09T02:12:54.101Z,1025.19
2016-12-09T02:13:34.926Z,1025.18
2016-12-09T02:14:15.732Z,1025.17
2016-12-09T02:14:56.578Z,1025.17
2016-12-09T02:15:37.412Z,1025.15
2016-12-09T02:16:18.294Z,1025.11
2016-12-09T02:16:59.152Z,1025.12
2016-12-09T02:17:39.991Z,1025.15
2016-12-09T02:18:20.804Z,1025.15
2016-12-09T02:19:01.623Z,1025.11
2016-12-09T02:19:42.487Z,1025.09
2016-12-09T02:20:23.328Z,1025.1
2016-12-09T02:21:04.146Z,1025.1
2016-12-09T02:21:45.014Z,1025.12
2016-12-09T02:22:25.854Z,1025.11
2016-12-09T02:23:06.696Z,1025.1
2016-12-09T02:23:47.539Z,1025.08
2016-12-09T02:24:28.386Z,1025.12
2016-12-09T02:25:09.192Z,1025.1
2016-12-09T02:25:50.055Z,1025.09
2016-12-09T02:26:30.895Z,1025.1
2016-12-09T02:27:11.741Z,1025.08
2016-12-09T02:27:52.601Z,1025.06
2016-12-09T02:28:33.404Z,1025.08
2016-12-09T02:29:14.236Z,1025.06
2016-12-09T02:29:55.069Z,1025.06
2016-12-09T02:30:35.895Z,1025.03
2016-12-09T02:31:16.750Z,1025.04
2016-12-09T02:31:57.626Z,1025.03
2016-12-09T02:32:38.523Z,1025.02
2016-12-09T02:33:19.342Z,1025.02
2016-12-09T02:34:00.178Z,1025.02
2016-12-09T02:34:40.987Z,1025
2016-12-09T02:35:21.831Z,1025.01
2016-12-09T02:36:02.664Z,1025.02
2016-12-09T02:36:43.508Z,1025.01
2016-12-09T02:37:24.330Z,1025.02
2016-12-09T02:38:05.163Z,1024.99
2016-12-09T02:38:46.029Z,1025
2016-12-09T02:39:26.875Z,1025
2016-12-09T02:40:07.715Z,1024.99
2016-12-09T02:40:48.546Z,1024.96
2016-12-09T02:41:29.401Z,1025
2016-12-09T02:42:10.233Z,1024.97
2016-12-09T02:42:51.063Z,1025
2016-12-09T02:43:31.899Z,1025.01
2016-12-09T02:44:12.782Z,1024.98
2016-12-09T02:44:53.571Z,1025
2016-12-09T02:45:34.414Z,1024.96
2016-12-09T02:46:15.222Z,1024.94
2016-12-09T02:46:56.054Z,1024.95
2016-12-09T02:47:36.885Z,1024.95
2016-12-09T02:48:17.747Z,1024.94
2016-12-09T02:48:58.579Z,1024.89
2016-12-09T02:49:39.406Z,1024.89
2016-12-09T02:50:20.211Z,1024.88
2016-12-09T02:51:01.044Z,1024.88
2016-12-09T02:51:41.860Z,1024.84
2016-12-09T02:52:22.684Z,1024.81
2016-12-09T02:53:03.500Z,1024.81
2016-12-09T02:53:44.329Z,1024.82
2016-12-09T02:54:25.173Z,1024.79
2016-12-09T02:55:05.998Z,1024.78
2016-12-09T02:55:46.827Z,1024.77
2016-12-09T02:56:27.644Z,1024.78
2016-12-09T02:57:08.487Z,1024.75
2016-12-09T02:57:49.303Z,1024.76
2016-12-09T02:58:30.116Z,1024.76
2016-12-09T02:59:10.934Z,1024.74
2016-12-09T02:59:51.747Z,1024.74
2016-12-09T03:00:32.596Z,1024.71
2016-12-09T03:01:13.432Z,1024.66
2016-12-09T03:01:54.254Z,1024.69
2016-12-09T03:02:35.071Z,1024.65
2016-12-09T03:03:15.888Z,1024.65
2016-12-09T03:03:56.714Z,1024.65
2016-12-09T03:04:37.547Z,1024.64
2016-12-09T03:05:18.365Z,1024.66
2016-12-09T03:05:59.192Z,1024.62
2016-12-09T03:06:40.015Z,1024.63
2016-12-09T03:07:20.857Z,1024.64
2016-12-09T03:08:01.654Z,1024.61
2016-12-09T03:08:42.508Z,1024.62
2016-12-09T03:09:23.335Z,1024.58
2016-12-09T03:10:04.210Z,1024.55
2016-12-09T03:10:45.043Z,1024.6
2016-12-09T03:11:25.905Z,1024.58
2016-12-09T03:12:06.721Z,1024.51
2016-12-09T03:12:47.580Z,1024.53
2016-12-09T03:13:28.397Z,1024.53
2016-12-09T03:14:09.226Z,1024.52
2016-12-09T03:14:50.042Z,1024.51
2016-12-09T03:15:30.862Z,1024.47
2016-12-09T03:16:11.676Z,1024.46
2016-12-09T03:16:52.519Z,1024.47
2016-12-09T03:17:33.336Z,1024.44
2016-12-09T03:18:14.205Z,1024.46
2016-12-09T03:18:55.061Z,1024.46
2016-12-09T03:19:35.863Z,1024.45
2016-12-09T03:20:16.702Z,1024.41
2016-12-09T03:20:57.522Z,1024.43
2016-12-09T03:21:38.364Z,1024.41
2016-12-09T03:22:19.181Z,1024.43
2016-12-09T03:23:00.054Z,1024.41
2016-12-09T03:23:40.906Z,1024.42
2016-12-09T03:24:21.717Z,1024.4
2016-12-09T03:25:02.548Z,1024.43
2016-12-09T03:25:43.401Z,1024.41
2016-12-09T03:26:24.233Z,1024.41
2016-12-09T03:27:05.094Z,1024.41
2016-12-09T03:27:45.926Z,1024.39
2016-12-09T03:28:26.725Z,1024.39
2016-12-09T03:29:07.543Z,1024.39
2016-12-09T03:29:48.379Z,1024.38
2016-12-09T03:30:29.207Z,1024.38
2016-12-09T03:31:10.018Z,1024.36
2016-12-09T03:31:50.874Z,1024.33
2016-12-09T03:32:31.736Z,1024.34
2016-12-09T03:33:12.607Z,1024.37
2016-12-09T03:33:53.459Z,1024.33
2016-12-09T03:34:34.300Z,1024.36
2016-12-09T03:35:15.126Z,1024.34
2016-12-09T03:35:56.012Z,1024.31
2016-12-09T03:36:36.823Z,1024.32
2016-12-09T03:37:17.692Z,1024.35
2016-12-09T03:37:58.501Z,1024.35
2016-12-09T03:38:39.307Z,1024.32
2016-12-09T03:39:20.196Z,1024.32
2016-12-09T03:40:00.998Z,1024.33
2016-12-09T03:40:41.902Z,1024.3
2016-12-09T03:41:22.720Z,1024.29
2016-12-09T03:42:03.566Z,1024.26
2016-12-09T03:42:44.382Z,1024.28
2016-12-09T03:43:25.182Z,1024.28
2016-12-09T03:44:06.014Z,1024.3
2016-12-09T03:44:46.865Z,1024.31
2016-12-09T03:45:27.699Z,1024.26
2016-12-09T03:46:08.539Z,1024.28
2016-12-09T03:46:49.358Z,1024.26
2016-12-09T03:47:30.171Z,1024.25
2016-12-09T03:48:10.994Z,1024.3
2016-12-09T03:48:51.804Z,1024.28
2016-12-09T03:49:32.622Z,1024.27
2016-12-09T03:50:13.437Z,1024.25
2016-12-09T03:50:54.251Z,1024.28
2016-12-09T03:51:35.116Z,1024.28
2016-12-09T03:52:15.973Z,1024.26
2016-12-09T03:52:56.829Z,1024.26
2016-12-09T03:53:37.667Z,1024.23
2016-12-09T03:54:18.534Z,1024.27
2016-12-09T03:54:59.384Z,1024.24
2016-12-09T03:55:40.202Z,1024.25
2016-12-09T03:56:21.012Z,1024.22
2016-12-09T03:57:01.849Z,1024.19
2016-12-09T03:57:42.673Z,1024.17
2016-12-09T03:58:23.550Z,1024.2
2016-12-09T03:59:04.381Z,1024.18
2016-12-09T03:59:45.208Z,1024.12
2016-12-09T04:00:26.054Z,1024.13
2016-12-09T04:01:06.877Z,1024.08
2016-12-09T04:01:47.712Z,1024.09
2016-12-09T04:02:28.518Z,1024.14
2016-12-09T04:03:09.356Z,1024.11
2016-12-09T04:03:50.170Z,1024.16
2016-12-09T04:04:31.029Z,1024.12
2016-12-09T04:05:11.845Z,1024.14
2016-12-09T04:05:52.675Z,1024.12
2016-12-09T04:06:33.533Z,1024.12
2016-12-09T04:07:14.355Z,1024.09
2016-12-09T04:07:55.188Z,1024.12
2016-12-09T04:08:36.014Z,1024.08
2016-12-09T04:09:16.839Z,1024.12
2016-12-09T04:09:57.670Z,1024.09
2016-12-09T04:10:38.479Z,1024.08
2016-12-09T04:11:19.294Z,1024.06
2016-12-09T04:12:00.118Z,1024.07
2016-12-09T04:12:40.956Z,1024.11
2016-12-09T04:13:21.772Z,1024.1
2016-12-09T04:14:02.594Z,1024.08
2016-12-09T04:14:43.413Z,1024.08
2016-12-09T04:15:24.252Z,1024.05
2016-12-09T04:16:05.150Z,1024.07
2016-12-09T04:16:45.963Z,1024.05
2016-12-09T04:17:26.769Z,1024.03
2016-12-09T04:18:07.594Z,1024.05
2016-12-09T04:18:48.419Z,1024.07
2016-12-09T04:19:29.260Z,1024.01
2016-12-09T04:20:10.099Z,1024
2016-12-09T04:20:50.927Z,1024
2016-12-09T04:21:31.773Z,1023.99
2016-12-09T04:22:12.614Z,1023.97
2016-12-09T04:22:53.465Z,1024.02
2016-12-09T04:23:34.346Z,1023.98
2016-12-09T04:24:15.164Z,1024
2016-12-09T04:24:56.010Z,1023.97
2016-12-09T04:25:36.808Z,1024.03
2016-12-09T04:26:17.629Z,1024.04
2016-12-09T04:26:58.445Z,1024.01
2016-12-09T04:27:39.290Z,1024.05
2016-12-09T04:28:20.124Z,1024.02
2016-12-09T04:29:00.940Z,1024
2016-12-09T04:29:41.780Z,1024.01
2016-12-09T04:30:22.624Z,1023.98
2016-12-09T04:31:03.450Z,1024.03
2016-12-09T04:31:44.275Z,1024.01
2016-12-09T04:32:25.104Z,1023.99
2016-12-09T04:33:05.936Z,1024
2016-12-09T04:33:46.748Z,1023.98
2016-12-09T04:34:27.576Z,1023.98
2016-12-09T04:35:08.399Z,1023.99
2016-12-09T04:35:49.211Z,1023.99
2016-12-09T04:36:30.028Z,1023.99
2016-12-09T04:37:10.845Z,1023.99
2016-12-09T04:37:51.664Z,1023.98
2016-12-09T04:38:32.495Z,1024
2016-12-09T04:39:13.312Z,1024.01
2016-12-09T04:39:54.135Z,1023.94
2016-12-09T04:40:34.967Z,1023.97
2016-12-09T04:41:15.831Z,1023.96
2016-12-09T04:41:56.629Z,1023.95
2016-12-09T04:42:37.530Z,1023.96
2016-12-09T04:43:18.357Z,1023.93
2016-12-09T04:43:59.165Z,1023.95
2016-12-09T04:44:39.984Z,1023.94
2016-12-09T04:45:20.844Z,1023.93
2016-12-09T04:46:01.656Z,1023.95
2016-12-09T04:46:42.488Z,1023.92
2016-12-09T04:47:23.282Z,1023.92
2016-12-09T04:48:04.099Z,1023.97
2016-12-09T04:48:44.925Z,1023.92
2016-12-09T04:49:25.775Z,1023.93
2016-12-09T04:50:06.598Z,1023.97
2016-12-09T04:50:47.423Z,1023.95
2016-12-09T04:51:28.251Z,1023.93
2016-12-09T04:52:09.067Z,1023.96
2016-12-09T04:52:49.880Z,1023.94
2016-12-09T04:53:30.756Z,1023.97
2016-12-09T04:54:11.579Z,1023.95
2016-12-09T04:54:52.392Z,1023.95
2016-12-09T04:55:33.201Z,1023.97
2016-12-09T04:56:14.020Z,1023.95
2016-12-09T04:56:54.841Z,1024
2016-12-09T04:57:35.711Z,1023.96
2016-12-09T04:58:16.526Z,1023.97
2016-12-09T04:58:57.357Z,1023.97
2016-12-09T04:59:38.151Z,1023.96
2016-12-09T05:00:18.985Z,1023.97
2016-12-09T05:00:59.800Z,1024.02
2016-12-09T05:01:40.701Z,1023.98
2016-12-09T05:02:21.569Z,1023.97
2016-12-09T05:03:02.395Z,1023.98
2016-12-09T05:03:43.243Z,1023.94
2016-12-09T05:04:24.088Z,1023.94
2016-12-09T05:05:04.982Z,1023.95
2016-12-09T05:05:45.784Z,1023.97
2016-12-09T05:06:26.618Z,1023.95
2016-12-09T05:07:07.437Z,1023.95
2016-12-09T05:07:48.319Z,1023.96
2016-12-09T05:08:29.154Z,1023.93
2016-12-09T05:09:09.971Z,1023.95
2016-12-09T05:09:50.824Z,1023.93
2016-12-09T05:10:31.683Z,1023.95
2016-12-09T05:11:12.546Z,1024
2016-12-09T05:11:53.367Z,1023.94
2016-12-09T05:12:34.190Z,1023.96
2016-12-09T05:13:15.010Z,1023.95
2016-12-09T05:13:55.892Z,1023.94
2016-12-09T05:14:36.703Z,1023.96
2016-12-09T05:15:17.552Z,1023.95
2016-12-09T05:15:58.379Z,1023.97
2016-12-09T05:16:39.245Z,1023.97
2016-12-09T05:17:20.076Z,1023.97
2016-12-09T05:18:00.903Z,1023.97
2016-12-09T05:18:41.718Z,1023.97
2016-12-09T05:19:22.530Z,1023.95
2016-12-09T05:20:03.354Z,1023.96
2016-12-09T05:20:44.187Z,1023.95
2016-12-09T05:21:25.017Z,1023.93
2016-12-09T05:22:05.915Z,1023.96
2016-12-09T05:22:46.749Z,1023.95
2016-12-09T05:23:27.605Z,1023.95
2016-12-09T05:24:08.433Z,1023.97
2016-12-09T05:24:49.262Z,1024.02
2016-12-09T05:25:30.083Z,1024.02
2016-12-09T05:26:10.899Z,1023.98
2016-12-09T05:26:52.625Z,1024.01
2016-12-09T05:27:33.473Z,1024.07
2016-12-09T05:28:14.293Z,1024.03
2016-12-09T05:28:55.121Z,1024.07
2016-12-09T05:29:35.944Z,1024.04
2016-12-09T05:30:16.771Z,1024.05
2016-12-09T05:30:57.623Z,1024.08
2016-12-09T05:31:38.480Z,1024.08
2016-12-09T05:32:19.307Z,1024.07
2016-12-09T05:33:00.130Z,1024.04
2016-12-09T05:33:41.035Z,1024.04
2016-12-09T05:34:21.871Z,1024.08
2016-12-09T05:35:02.722Z,1024.06
2016-12-09T05:35:43.533Z,1024.06
2016-12-09T05:36:24.376Z,1024.06
2016-12-09T05:37:05.229Z,1024.06
2016-12-09T05:37:46.086Z,1024.04
2016-12-09T05:38:26.935Z,1024.04
2016-12-09T05:39:07.776Z,1024.03
2016-12-09T05:39:48.625Z,1024.03
2016-12-09T05:40:29.501Z,1024.06
2016-12-09T05:41:10.285Z,1024.03
2016-12-09T05:41:51.160Z,1024.03
2016-12-09T05:42:32.021Z,1024.03
2016-12-09T05:43:12.839Z,1024.02
2016-12-09T05:43:53.673Z,1024.05
2016-12-09T05:44:34.545Z,1024.05
2016-12-09T05:45:15.364Z,1024.01
2016-12-09T05:45:56.213Z,1024.02
2016-12-09T05:46:37.048Z,1024.01
2016-12-09T05:47:17.902Z,1024.05
2016-12-09T05:47:58.736Z,1024.03
2016-12-09T05:48:39.560Z,1024.04
2016-12-09T05:49:20.379Z,1024.03
2016-12-09T05:50:01.241Z,1024.04
2016-12-09T05:50:42.093Z,1024.03
2016-12-09T05:51:22.886Z,1024.01
2016-12-09T05:52:03.707Z,1024.03
2016-12-09T05:52:44.546Z,1024.08
2016-12-09T05:53:25.380Z,1024.05
2016-12-09T05:54:06.233Z,1024.04
2016-12-09T05:54:47.068Z,1024.08
2016-12-09T05:55:27.906Z,1024.07
2016-12-09T05:56:08.773Z,1024.08
2016-12-09T05:56:49.617Z,1024.06
2016-12-09T05:57:30.440Z,1024.07
2016-12-09T05:58:11.322Z,1024.06
2016-12-09T05:58:52.186Z,1024.07
2016-12-09T05:59:33.013Z,1024.07
2016-12-09T06:00:13.850Z,1024.05
2016-12-09T06:00:54.711Z,1024.08
2016-12-09T06:01:35.569Z,1024.1
2016-12-09T06:02:16.417Z,1024.09
2016-12-09T06:02:57.225Z,1024.11
2016-12-09T06:03:38.040Z,1024.12
2016-12-09T06:04:18.895Z,1024.13
2016-12-09T06:04:59.746Z,1024.16
2016-12-09T06:05:40.565Z,1024.09
2016-12-09T06:06:21.379Z,1024.09
2016-12-09T06:07:02.203Z,1024.12
2016-12-09T06:07:43.029Z,1024.16
2016-12-09T06:08:23.887Z,1024.13
2016-12-09T06:09:04.715Z,1024.13
2016-12-09T06:09:45.560Z,1024.12
2016-12-09T06:10:26.437Z,1024.11
2016-12-09T06:11:07.273Z,1024.11
2016-12-09T06:11:48.135Z,1024.11
2016-12-09T06:12:28.974Z,1024.11
2016-12-09T06:13:09.750Z,1024.07
2016-12-09T06:13:50.571Z,1024.11
2016-12-09T06:14:31.471Z,1024.13
2016-12-09T06:15:12.313Z,1024.13
2016-12-09T06:15:53.125Z,1024.11
2016-12-09T06:16:34.012Z,1024.1
2016-12-09T06:17:14.796Z,1024.12
2016-12-09T06:17:55.652Z,1024.14
2016-12-09T06:18:36.475Z,1024.12
2016-12-09T06:19:17.342Z,1024.15
2016-12-09T06:19:58.178Z,1024.16
2016-12-09T06:20:39.029Z,1024.13
2016-12-09T06:21:19.892Z,1024.14
2016-12-09T06:22:00.741Z,1024.14
2016-12-09T06:22:41.579Z,1024.13
2016-12-09T06:23:22.415Z,1024.14
2016-12-09T06:24:03.220Z,1024.13
2016-12-09T06:24:44.050Z,1024.13
2016-12-09T06:25:24.859Z,1024.1
2016-12-09T06:26:05.694Z,1024.14
2016-12-09T06:26:46.498Z,1024.14
2016-12-09T06:27:27.356Z,1024.16
2016-12-09T06:28:08.203Z,1024.17
2016-12-09T06:28:49.036Z,1024.19
2016-12-09T06:29:29.858Z,1024.16
2016-12-09T06:30:10.746Z,1024.18
2016-12-09T06:30:51.576Z,1024.15
2016-12-09T06:31:32.400Z,1024.16
2016-12-09T06:32:13.249Z,1024.16
2016-12-09T06:32:54.068Z,1024.18
2016-12-09T06:33:34.870Z,1024.16
2016-12-09T06:34:15.686Z,1024.19
2016-12-09T06:34:56.520Z,1024.17
2016-12-09T06:35:37.338Z,1024.2
2016-12-09T06:36:18.155Z,1024.23
2016-12-09T06:36:58.976Z,1024.26
2016-12-09T06:37:39.807Z,1024.25
2016-12-09T06:38:20.635Z,1024.25
2016-12-09T06:39:01.444Z,1024.29
2016-12-09T06:39:42.285Z,1024.29
2016-12-09T06:40:23.102Z,1024.24
2016-12-09T06:41:03.972Z,1024.26
2016-12-09T06:41:44.786Z,1024.27
2016-12-09T06:42:25.603Z,1024.33
2016-12-09T06:43:06.493Z,1024.34
2016-12-09T06:43:48.224Z,1024.32
2016-12-09T06:44:29.047Z,1024.3
2016-12-09T06:45:09.872Z,1024.33
2016-12-09T06:45:50.695Z,1024.34
2016-12-09T06:46:31.488Z,1024.33
2016-12-09T06:47:12.311Z,1024.34
2016-12-09T06:47:53.194Z,1024.34
2016-12-09T06:48:34.043Z,1024.34
2016-12-09T06:49:14.944Z,1024.31
2016-12-09T06:49:55.759Z,1024.29
2016-12-09T06:50:36.625Z,1024.29
2016-12-09T06:51:17.448Z,1024.33
2016-12-09T06:51:58.268Z,1024.31
2016-12-09T06:52:39.090Z,1024.29
2016-12-09T06:53:19.904Z,1024.32
2016-12-09T06:54:00.791Z,1024.32
2016-12-09T06:54:41.621Z,1024.31
2016-12-09T06:55:22.458Z,1024.32
2016-12-09T06:56:03.284Z,1024.33
2016-12-09T06:56:44.100Z,1024.32
2016-12-09T06:57:24.940Z,1024.37
2016-12-09T06:58:05.774Z,1024.37
2016-12-09T06:58:46.671Z,1024.34
2016-12-09T06:59:27.517Z,1024.34
2016-12-09T07:00:08.397Z,1024.35
2016-12-09T07:00:49.237Z,1024.37
2016-12-09T07:01:30.122Z,1024.36
2016-12-09T07:02:10.935Z,1024.34
2016-12-09T07:02:51.753Z,1024.32
2016-12-09T07:03:32.568Z,1024.33
2016-12-09T07:04:13.367Z,1024.3
2016-12-09T07:04:54.275Z,1024.33
2016-12-09T07:05:35.083Z,1024.32
2016-12-09T07:06:15.898Z,1024.32
2016-12-09T07:06:56.708Z,1024.31
2016-12-09T07:07:37.554Z,1024.34
2016-12-09T07:08:18.366Z,1024.33
2016-12-09T07:08:59.195Z,1024.35
2016-12-09T07:09:40.022Z,1024.34
2016-12-09T07:10:20.861Z,1024.37
2016-12-09T07:11:01.685Z,1024.36
2016-12-09T07:11:42.514Z,1024.36
2016-12-09T07:12:23.319Z,1024.36
2016-12-09T07:13:04.189Z,1024.35
2016-12-09T07:13:45.031Z,1024.34
2016-12-09T07:14:25.857Z,1024.34
2016-12-09T07:15:06.703Z,1024.37
2016-12-09T07:15:47.530Z,1024.37
2016-12-09T07:16:28.365Z,1024.34
2016-12-09T07:17:09.208Z,1024.37
2016-12-09T07:17:50.014Z,1024.39
2016-12-09T07:18:30.866Z,1024.42
2016-12-09T07:19:11.666Z,1024.4
2016-12-09T07:19:52.489Z,1024.44
2016-12-09T07:20:33.302Z,1024.44
2016-12-09T07:21:14.153Z,1024.43
2016-12-09T07:21:54.991Z,1024.45
2016-12-09T07:22:35.806Z,1024.4
2016-12-09T07:23:16.633Z,1024.43
2016-12-09T07:23:57.440Z,1024.44
2016-12-09T07:24:38.268Z,1024.43
2016-12-09T07:25:19.091Z,1024.42
2016-12-09T07:25:59.916Z,1024.45
2016-12-09T07:26:40.725Z,1024.43
2016-12-09T07:27:21.572Z,1024.44
2016-12-09T07:28:02.412Z,1024.43
2016-12-09T07:28:43.919Z,1024.43
2016-12-09T07:29:24.064Z,1024.45
2016-12-09T07:30:04.908Z,1024.44
2016-12-09T07:30:45.745Z,1024.41
2016-12-09T07:31:26.565Z,1024.42
2016-12-09T07:32:07.397Z,1024.47
2016-12-09T07:32:48.217Z,1024.47
2016-12-09T07:33:29.059Z,1024.48
2016-12-09T07:34:09.880Z,1024.47
2016-12-09T07:34:50.716Z,1024.48
2016-12-09T07:35:31.552Z,1024.48
2016-12-09T07:36:12.366Z,1024.46
2016-12-09T07:36:53.199Z,1024.47
2016-12-09T07:37:34.018Z,1024.47
2016-12-09T07:38:14.854Z,1024.5
2016-12-09T07:38:55.655Z,1024.52
2016-12-09T07:39:36.486Z,1024.49
2016-12-09T07:40:17.326Z,1024.46
2016-12-09T07:40:58.135Z,1024.48
2016-12-09T07:41:38.987Z,1024.47
2016-12-09T07:42:19.828Z,1024.45
2016-12-09T07:43:00.638Z,1024.45
2016-12-09T07:43:41.464Z,1024.47
2016-12-09T07:44:22.286Z,1024.51
2016-12-09T07:45:03.113Z,1024.48
2016-12-09T07:45:43.927Z,1024.48
2016-12-09T07:46:25.753Z,1024.45
2016-12-09T07:47:06.587Z,1024.47
2016-12-09T07:47:47.439Z,1024.47
2016-12-09T07:48:28.255Z,1024.48
2016-12-09T07:49:09.088Z,1024.47
2016-12-09T07:49:49.929Z,1024.46
2016-12-09T07:50:30.745Z,1024.5
2016-12-09T07:51:11.596Z,1024.48
2016-12-09T07:51:52.416Z,1024.49
2016-12-09T07:52:33.227Z,1024.47
2016-12-09T07:53:14.044Z,1024.5
2016-12-09T07:53:54.880Z,1024.5
2016-12-09T07:54:35.724Z,1024.49
2016-12-09T07:55:16.552Z,1024.52
2016-12-09T07:55:57.371Z,1024.54
2016-12-09T07:56:38.208Z,1024.52
2016-12-09T07:57:19.046Z,1024.53
2016-12-09T07:57:59.862Z,1024.56
2016-12-09T07:58:40.681Z,1024.54
2016-12-09T07:59:21.495Z,1024.54
2016-12-09T08:00:02.326Z,1024.53
2016-12-09T08:00:43.156Z,1024.55
2016-12-09T08:01:23.995Z,1024.54
2016-12-09T08:02:04.815Z,1024.54
2016-12-09T08:02:45.635Z,1024.54
2016-12-09T08:03:26.447Z,1024.55
2016-12-09T08:04:07.262Z,1024.57
2016-12-09T08:04:48.112Z,1024.57
2016-12-09T08:05:28.947Z,1024.57
2016-12-09T08:06:09.762Z,1024.56
2016-12-09T08:06:50.582Z,1024.55
2016-12-09T08:07:31.411Z,1024.56
2016-12-09T08:08:12.241Z,1024.56
2016-12-09T08:08:53.080Z,1024.54
2016-12-09T08:09:33.890Z,1024.56
2016-12-09T08:10:14.702Z,1024.57
2016-12-09T08:10:55.534Z,1024.58
2016-12-09T08:11:36.350Z,1024.58
2016-12-09T08:12:17.181Z,1024.62
2016-12-09T08:12:58.001Z,1024.57
2016-12-09T08:13:38.858Z,1024.61
2016-12-09T08:14:19.684Z,1024.62
2016-12-09T08:15:00.519Z,1024.61
2016-12-09T08:15:41.331Z,1024.59